createdAt,value
2023-05-17T00:02:01.278Z,101297.27
2023-05-17T00:04:28.698Z,101293.44
2023-05-17T00:06:55.685Z,101295.59
2023-05-17T00:09:22.589Z,101294.54
2023-05-17T00:11:49.440Z,101294.08
2023-05-17T00:14:16.603Z,101292.77
2023-05-17T00:16:43.618Z,101294.52
2023-05-17T00:19:10.789Z,101292.88
2023-05-17T00:21:38.238Z,101293.06
2023-05-17T00:24:05.324Z,101287.71
2023-05-17T00:26:34.208Z,101286.34
2023-05-17T00:29:01.136Z,101287.20
2023-05-17T00:31:28.069Z,101287.31
2023-05-17T00:33:54.869Z,101287.91
2023-05-17T00:36:21.874Z,101284.81
2023-05-17T00:38:48.730Z,101288.75
2023-05-17T00:41:15.712Z,101278.98
2023-05-17T00:43:42.592Z,101279.41
2023-05-17T00:46:09.858Z,101282.38
2023-05-17T00:48:36.766Z,101279.27
2023-05-17T00:51:03.857Z,101277.56
2023-05-17T00:53:30.811Z,101277.11
2023-05-17T00:55:57.615Z,101271.96
2023-05-17T00:58:24.447Z,101270.03
2023-05-17T01:00:52.236Z,101270.39
2023-05-17T01:03:19.253Z,101270.18
2023-05-17T01:05:46.203Z,101268.36
2023-05-17T01:08:13.163Z,101266.69
2023-05-17T01:10:52.440Z,101265.91
2023-05-17T01:13:20.474Z,101268.30
2023-05-17T01:15:49.618Z,101262.87
2023-05-17T01:18:39.652Z,101260.70
2023-05-17T01:21:11.458Z,101257.18
2023-05-17T01:23:41.345Z,101259.24
2023-05-17T01:26:14.447Z,101260.48
2023-05-17T01:28:41.632Z,101255.77
2023-05-17T01:31:08.558Z,101254.59
2023-05-17T01:33:37.921Z,101251.60
2023-05-17T01:36:05.117Z,101254.11
2023-05-17T01:38:31.980Z,101249.84
2023-05-17T01:41:03.929Z,101247.84
2023-05-17T01:43:33.834Z,101239.75
2023-05-17T01:46:02.346Z,101239.34
2023-05-17T01:48:31.918Z,101241.39
2023-05-17T01:50:58.907Z,101237.83
2023-05-17T01:53:28.153Z,101234.30
2023-05-17T01:55:56.929Z,101235.17
2023-05-17T01:58:25.465Z,101234.36
2023-05-17T02:00:52.802Z,101238.20
2023-05-17T02:03:19.822Z,101236.30
2023-05-17T02:05:48.713Z,101235.38
2023-05-17T02:08:15.729Z,101240.64
2023-05-17T02:10:42.766Z,101241.89
2023-05-17T02:13:09.713Z,101242.59
2023-05-17T02:15:36.738Z,101241.02
2023-05-17T02:18:03.718Z,101240.50
2023-05-17T02:20:31.753Z,101239.50
2023-05-17T02:22:58.669Z,101241.45
2023-05-17T02:25:27.018Z,101244.41
2023-05-17T02:27:54.279Z,101244.82
2023-05-17T02:30:22.512Z,101245.16
2023-05-17T02:32:49.430Z,101246.60
2023-05-17T02:35:16.406Z,101245.52
2023-05-17T02:37:43.208Z,101245.58
2023-05-17T02:40:12.407Z,101245.54
2023-05-17T02:42:39.429Z,101244.10
2023-05-17T02:45:06.706Z,101245.30
2023-05-17T02:47:33.587Z,101245.84
2023-05-17T02:50:00.610Z,101247.57
2023-05-17T02:52:27.816Z,101246.85
2023-05-17T02:54:54.675Z,101247.02
2023-05-17T02:57:21.678Z,101246.58
2023-05-17T02:59:48.668Z,101244.91
2023-05-17T03:02:15.894Z,101246.58
2023-05-17T03:04:42.902Z,101244.60
2023-05-17T03:07:09.789Z,101244.98
2023-05-17T03:09:37.441Z,101244.77
2023-05-17T03:12:04.795Z,101245.05
2023-05-17T03:14:33.694Z,101249.52
2023-05-17T03:17:01.218Z,101252.67
2023-05-17T03:19:28.257Z,101258.05
2023-05-17T03:21:55.420Z,101257.05
2023-05-17T03:24:22.386Z,101263.61
2023-05-17T03:26:50.915Z,101263.76
2023-05-17T03:29:17.750Z,101262.89
2023-05-17T03:31:45.166Z,101260.56
2023-05-17T03:34:12.708Z,101261.55
2023-05-17T03:36:40.871Z,101261.20
2023-05-17T03:39:08.231Z,101263.62
2023-05-17T03:41:36.389Z,101263.14
2023-05-17T03:44:03.931Z,101266.77
2023-05-17T03:46:31.996Z,101267.90
2023-05-17T03:48:58.982Z,101276.27
2023-05-17T03:51:26.236Z,101273.56
2023-05-17T03:53:57.498Z,101271.33
2023-05-17T03:56:25.556Z,101272.59
2023-05-17T03:58:52.936Z,101273.03
2023-05-17T04:01:20.625Z,101273.56
2023-05-17T04:03:47.814Z,101278.22
2023-05-17T04:06:14.927Z,101274.02
2023-05-17T04:08:42.485Z,101269.85
2023-05-17T04:11:15.340Z,101273.13
2023-05-17T04:13:43.285Z,101277.39
2023-05-17T04:16:10.394Z,101269.18
2023-05-17T04:18:39.154Z,101268.30
2023-05-17T04:21:06.369Z,101272.00
2023-05-17T04:23:34.325Z,101273.70
2023-05-17T04:26:01.696Z,101273.98
2023-05-17T04:28:29.341Z,101280.17
2023-05-17T04:30:56.260Z,101277.84
2023-05-17T04:33:24.406Z,101272.73
2023-05-17T04:35:51.733Z,101272.15
2023-05-17T04:38:18.819Z,101273.39
2023-05-17T04:40:45.687Z,101274.33
2023-05-17T04:43:12.865Z,101276.20
2023-05-17T04:45:41.203Z,101274.81
2023-05-17T04:48:08.570Z,101277.95
2023-05-17T04:50:35.891Z,101277.15
2023-05-17T04:53:04.277Z,101277.52
2023-05-17T04:55:32.424Z,101280.14
2023-05-17T04:57:59.540Z,101282.41
2023-05-17T05:00:26.829Z,101282.27
2023-05-17T05:02:59.672Z,101279.70
2023-05-17T05:05:26.772Z,101282.45
2023-05-17T05:07:54.695Z,101282.61
2023-05-17T05:10:23.368Z,101284.33
2023-05-17T05:12:50.201Z,101281.77
2023-05-17T05:15:17.429Z,101282.00
2023-05-17T05:17:49.254Z,101284.48
2023-05-17T05:20:16.856Z,101285.52
2023-05-17T05:22:43.935Z,101284.71
2023-05-17T05:25:11.263Z,101289.02
2023-05-17T05:27:38.217Z,101284.90
2023-05-17T05:30:05.439Z,101283.52
2023-05-17T05:32:32.522Z,101283.59
2023-05-17T05:34:59.988Z,101276.88
2023-05-17T05:37:27.233Z,101277.64
2023-05-17T05:39:54.281Z,101272.52
2023-05-17T05:42:21.486Z,101274.05
2023-05-17T05:44:48.849Z,101275.59
2023-05-17T05:47:17.204Z,101274.27
2023-05-17T05:49:44.162Z,101275.06
2023-05-17T05:52:13.788Z,101276.02
2023-05-17T05:54:41.373Z,101282.94
2023-05-17T05:57:08.495Z,101283.88
2023-05-17T05:59:35.613Z,101290.33
2023-05-17T06:02:02.680Z,101289.77
2023-05-17T06:04:43.909Z,101291.48
2023-05-17T06:07:15.201Z,101290.95
2023-05-17T06:09:42.366Z,101286.38
2023-05-17T06:12:09.767Z,101288.38
2023-05-17T06:14:41.570Z,101286.38
2023-05-17T06:17:08.436Z,101290.16
2023-05-17T06:19:37.200Z,101294.19
2023-05-17T06:22:05.878Z,101295.34
2023-05-17T06:24:33.291Z,101295.23
2023-05-17T06:27:00.397Z,101300.84
2023-05-17T06:29:27.258Z,101303.08
2023-05-17T06:31:56.684Z,101302.28
2023-05-17T06:34:23.698Z,101308.73
2023-05-17T06:36:50.764Z,101312.09
2023-05-17T06:39:17.655Z,101316.91
2023-05-17T06:41:44.627Z,101316.15
2023-05-17T06:44:16.442Z,101321.65
2023-05-17T06:46:43.449Z,101322.41
2023-05-17T06:49:13.656Z,101321.52
2023-05-17T06:51:41.050Z,101325.27
2023-05-17T06:56:23.224Z,101327.21
2023-05-17T06:58:50.555Z,101331.63
2023-05-17T07:01:19.041Z,101337.85
2023-05-17T07:03:46.113Z,101337.64
2023-05-17T07:06:13.206Z,101338.86
2023-05-17T07:08:40.704Z,101341.73
2023-05-17T07:11:07.720Z,101342.23
2023-05-17T07:13:34.986Z,101341.62
2023-05-17T07:16:01.941Z,101339.61
2023-05-17T07:18:29.024Z,101343.88
2023-05-17T07:20:56.268Z,101347.84
2023-05-17T07:23:23.144Z,101343.45
2023-05-17T07:25:50.416Z,101342.08
2023-05-17T07:28:17.373Z,101342.86
2023-05-17T07:30:51.184Z,101343.38
2023-05-17T07:33:18.835Z,101345.52
2023-05-17T07:35:46.012Z,101352.55
2023-05-17T07:38:12.969Z,101351.89
2023-05-17T07:40:42.251Z,101350.73
2023-05-17T07:43:09.678Z,101349.50
2023-05-17T07:45:36.561Z,101352.50
2023-05-17T07:48:03.566Z,101357.79
2023-05-17T07:50:32.981Z,101357.58
2023-05-17T07:53:06.341Z,101355.54
2023-05-17T07:55:35.761Z,101353.28
2023-05-17T07:58:02.804Z,101352.49
2023-05-17T08:00:29.748Z,101353.39
2023-05-17T08:02:59.459Z,101358.70
2023-05-17T08:05:29.366Z,101357.70
2023-05-17T08:08:05.715Z,101352.66
2023-05-17T08:10:38.753Z,101352.84
2023-05-17T08:13:06.318Z,101351.09
2023-05-17T08:15:33.224Z,101351.58
2023-05-17T08:18:02.879Z,101352.38
2023-05-17T08:20:31.589Z,101352.43
2023-05-17T08:22:58.525Z,101354.22
2023-05-17T08:25:27.718Z,101355.66
2023-05-17T08:27:56.071Z,101357.34
2023-05-17T08:30:28.875Z,101358.79
2023-05-17T08:32:56.901Z,101357.23
2023-05-17T08:35:29.083Z,101356.85
2023-05-17T08:37:56.340Z,101359.09
2023-05-17T08:40:23.508Z,101358.44
2023-05-17T08:42:51.028Z,101359.14
2023-05-17T08:45:19.204Z,101364.61
2023-05-17T08:47:46.857Z,101366.42
2023-05-17T08:50:14.484Z,101364.63
2023-05-17T08:52:42.057Z,101364.20
2023-05-17T08:55:09.315Z,101362.78
2023-05-17T08:57:39.431Z,101362.77
2023-05-17T09:00:12.702Z,101358.56
2023-05-17T09:02:42.341Z,101358.67
2023-05-17T09:05:14.223Z,101355.28
2023-05-17T09:07:42.681Z,101358.25
2023-05-17T09:10:10.371Z,101356.45
2023-05-17T09:12:37.806Z,101355.91
2023-05-17T09:15:23.202Z,101353.77
2023-05-17T09:17:53.959Z,101355.63
2023-05-17T09:20:25.054Z,101357.61
2023-05-17T09:22:52.740Z,101355.48
2023-05-17T09:25:23.243Z,101357.24
2023-05-17T09:27:53.765Z,101355.09
2023-05-17T09:30:26.821Z,101356.98
2023-05-17T09:32:54.359Z,101355.58
2023-05-17T09:35:29.531Z,101350.94
2023-05-17T09:38:24.835Z,101348.58
2023-05-17T09:40:52.546Z,101345.42
2023-05-17T09:43:23.266Z,101343.23
2023-05-17T09:45:57.428Z,101340.48
2023-05-17T09:48:28.245Z,101340.69
2023-05-17T09:50:55.332Z,101338.45
2023-05-17T09:53:31.232Z,101335.95
2023-05-17T09:56:01.162Z,101334.75
2023-05-17T09:58:29.208Z,101333.54
2023-05-17T10:01:02.209Z,101336.12
2023-05-17T10:03:38.608Z,101338.88
2023-05-17T10:06:13.413Z,101332.95
2023-05-17T10:08:47.008Z,101334.61
2023-05-17T10:11:14.034Z,101334.94
2023-05-17T10:13:44.572Z,101335.73
2023-05-17T10:16:12.159Z,101328.78
2023-05-17T10:18:40.870Z,101324.52
2023-05-17T10:21:08.521Z,101320.46
2023-05-17T10:23:35.814Z,101319.84
2023-05-17T10:26:02.766Z,101316.98
2023-05-17T10:28:29.615Z,101313.16
2023-05-17T10:30:56.814Z,101312.35
2023-05-17T10:33:26.935Z,101311.52
2023-05-17T10:35:53.877Z,101308.91
2023-05-17T10:38:24.028Z,101310.86
2023-05-17T10:40:53.918Z,101310.26
2023-05-17T10:43:21.050Z,101313.51
2023-05-17T10:45:48.074Z,101306.98
2023-05-17T10:48:15.764Z,101300.86
2023-05-17T10:50:54.362Z,101296.58
2023-05-17T10:53:33.246Z,101296.30
2023-05-17T10:56:03.338Z,101295.73
2023-05-17T10:58:30.483Z,101291.44
2023-05-17T11:01:00.470Z,101285.97
2023-05-17T11:03:30.882Z,101281.92
2023-05-17T11:06:13.043Z,101279.79
2023-05-17T11:09:09.057Z,101277.33
2023-05-17T11:12:17.184Z,101283.00
2023-05-17T11:14:46.842Z,101281.20
2023-05-17T11:17:14.759Z,101279.33
2023-05-17T11:19:57.416Z,101279.60
2023-05-17T11:22:24.949Z,101277.19
2023-05-17T11:24:53.359Z,101275.12
2023-05-17T11:27:21.045Z,101275.90
2023-05-17T11:29:50.968Z,101273.58
2023-05-17T11:32:17.865Z,101271.70
2023-05-17T11:34:44.792Z,101271.73
2023-05-17T11:37:12.113Z,101273.91
2023-05-17T11:39:39.106Z,101269.45
2023-05-17T11:42:06.194Z,101263.04
2023-05-17T11:44:33.729Z,101261.23
2023-05-17T11:47:09.985Z,101261.54
2023-05-17T11:49:37.989Z,101256.64
2023-05-17T11:52:05.184Z,101255.03
2023-05-17T11:54:32.298Z,101256.02
2023-05-17T11:56:59.829Z,101253.21
2023-05-17T11:59:26.805Z,101253.81
2023-05-17T12:01:54.354Z,101252.02
2023-05-17T12:04:31.904Z,101248.91
2023-05-17T12:07:01.440Z,101248.66
2023-05-17T12:09:28.422Z,101246.43
2023-05-17T12:11:57.687Z,101242.80
2023-05-17T12:14:24.851Z,101245.00
2023-05-17T12:16:56.665Z,101240.73
2023-05-17T12:19:30.039Z,101243.24
2023-05-17T12:22:09.130Z,101239.89
2023-05-17T12:24:42.848Z,101235.30
2023-05-17T12:27:10.042Z,101234.36
2023-05-17T12:29:38.458Z,101231.06
2023-05-17T12:32:08.206Z,101226.34
2023-05-17T12:34:36.511Z,101224.54
2023-05-17T12:37:11.300Z,101222.40
2023-05-17T12:39:38.586Z,101219.66
2023-05-17T12:42:09.134Z,101221.21
2023-05-17T12:44:36.212Z,101223.02
2023-05-17T12:47:03.396Z,101220.95
2023-05-17T12:49:37.749Z,101216.05
2023-05-17T12:52:07.965Z,101218.38
2023-05-17T12:54:35.008Z,101211.81
2023-05-17T12:57:13.445Z,101211.56
2023-05-17T12:59:48.361Z,101209.57
2023-05-17T13:02:17.082Z,101206.95
2023-05-17T13:04:46.501Z,101204.64
2023-05-17T13:07:20.755Z,101206.65
2023-05-17T13:09:49.330Z,101202.92
2023-05-17T13:12:23.139Z,101203.09
2023-05-17T13:14:53.847Z,101200.67
2023-05-17T13:17:27.695Z,101200.35
2023-05-17T13:19:57.199Z,101197.86
2023-05-17T13:22:25.436Z,101198.02
2023-05-17T13:24:56.440Z,101201.23
2023-05-17T13:27:24.416Z,101200.11
2023-05-17T13:29:51.426Z,101198.63
2023-05-17T13:32:19.233Z,101198.38
2023-05-17T13:34:48.656Z,101199.36
2023-05-17T13:37:15.839Z,101199.25
2023-05-17T13:39:42.893Z,101204.11
2023-05-17T13:42:15.611Z,101201.13
2023-05-17T13:44:42.639Z,101198.71
2023-05-17T13:47:09.659Z,101200.38
2023-05-17T13:49:42.323Z,101199.23
2023-05-17T13:52:10.625Z,101200.98
2023-05-17T13:54:49.973Z,101200.41
2023-05-17T13:57:17.261Z,101198.08
2023-05-17T13:59:45.924Z,101195.27
2023-05-17T14:02:16.358Z,101194.05
2023-05-17T14:04:43.372Z,101191.86
2023-05-17T14:07:10.479Z,101189.10
2023-05-17T14:09:39.852Z,101188.80
2023-05-17T14:12:06.954Z,101187.66
2023-05-17T14:14:33.924Z,101184.28
2023-05-17T14:17:01.954Z,101181.05
2023-05-17T14:19:28.975Z,101176.48
2023-05-17T14:21:56.098Z,101175.30
2023-05-17T14:24:22.955Z,101175.33
2023-05-17T14:26:49.856Z,101172.37
2023-05-17T14:29:17.225Z,101172.31
2023-05-17T14:31:47.798Z,101168.41
2023-05-17T14:34:14.900Z,101169.45
2023-05-17T14:36:42.180Z,101166.17
2023-05-17T14:39:10.307Z,101164.45
2023-05-17T14:41:42.105Z,101162.84
2023-05-17T14:44:10.501Z,101161.20
2023-05-17T14:46:40.386Z,101162.67
2023-05-17T14:49:08.067Z,101162.55
2023-05-17T14:51:35.087Z,101158.67
2023-05-17T14:54:02.037Z,101156.82
2023-05-17T14:56:48.904Z,101156.44
2023-05-17T14:59:20.805Z,101157.21
2023-05-17T15:01:51.694Z,101153.64
2023-05-17T15:04:20.281Z,101147.92
2023-05-17T15:06:47.556Z,101149.02
2023-05-17T15:09:18.064Z,101150.41
2023-05-17T15:11:45.489Z,101151.92
2023-05-17T15:14:12.347Z,101148.59
2023-05-17T15:16:39.407Z,101150.34
2023-05-17T15:19:06.770Z,101153.50
2023-05-17T15:21:33.678Z,101157.63
2023-05-17T15:24:00.604Z,101158.67
2023-05-17T15:26:27.503Z,101154.22
2023-05-17T15:28:54.435Z,101154.31
2023-05-17T15:31:21.374Z,101154.88
2023-05-17T15:33:48.351Z,101153.35
2023-05-17T15:36:16.509Z,101150.63
2023-05-17T15:38:43.470Z,101149.83
2023-05-17T15:41:11.591Z,101146.75
2023-05-17T15:43:38.487Z,101146.01
2023-05-17T15:46:05.397Z,101144.17
2023-05-17T15:48:34.122Z,101141.95
2023-05-17T15:51:01.199Z,101141.74
2023-05-17T15:53:28.540Z,101141.38
2023-05-17T15:55:55.466Z,101147.65
2023-05-17T15:58:23.212Z,101150.13
2023-05-17T16:00:50.101Z,101151.55
2023-05-17T16:03:17.009Z,101152.98
2023-05-17T16:05:43.800Z,101154.67
2023-05-17T16:08:12.536Z,101153.70
2023-05-17T16:10:39.350Z,101159.11
2023-05-17T16:13:06.586Z,101163.88
2023-05-17T16:15:34.435Z,101162.48
2023-05-17T16:18:01.368Z,101161.85
2023-05-17T16:20:29.435Z,101165.52
2023-05-17T16:22:56.656Z,101170.89
2023-05-17T16:25:24.586Z,101175.92
2023-05-17T16:27:52.848Z,101180.25
2023-05-17T16:30:19.814Z,101178.61
2023-05-17T16:32:48.076Z,101180.85
2023-05-17T16:35:15.609Z,101183.64
2023-05-17T16:37:43.576Z,101178.02
2023-05-17T16:40:10.642Z,101179.55
2023-05-17T16:42:37.526Z,101174.95
2023-05-17T16:45:06.423Z,101176.07
2023-05-17T16:47:34.868Z,101174.71
2023-05-17T16:50:02.465Z,101172.51
2023-05-17T16:52:30.466Z,101173.09
2023-05-17T16:55:03.511Z,101173.38
2023-05-17T16:57:31.945Z,101170.45
2023-05-17T17:00:00.972Z,101169.59
2023-05-17T17:02:28.259Z,101170.66
2023-05-17T17:04:55.294Z,101174.34
2023-05-17T17:07:22.280Z,101166.08
2023-05-17T17:09:49.241Z,101167.69
2023-05-17T17:12:24.143Z,101170.35
2023-05-17T17:14:52.686Z,101167.33
2023-05-17T17:17:19.563Z,101165.33
2023-05-17T17:19:46.465Z,101165.18
2023-05-17T17:22:14.903Z,101169.36
2023-05-17T17:24:42.796Z,101176.44
2023-05-17T17:27:09.655Z,101178.13
2023-05-17T17:29:36.565Z,101178.52
2023-05-17T17:32:03.533Z,101177.30
2023-05-17T17:34:30.605Z,101177.89
2023-05-17T17:36:57.706Z,101174.39
2023-05-17T17:39:24.628Z,101173.21
2023-05-17T17:41:51.581Z,101169.42
2023-05-17T17:44:18.632Z,101173.23
2023-05-17T17:46:45.582Z,101174.87
2023-05-17T17:49:12.421Z,101177.85
2023-05-17T17:51:39.321Z,101176.48
2023-05-17T17:54:07.472Z,101179.18
2023-05-17T17:56:34.473Z,101182.42
2023-05-17T17:59:01.470Z,101180.83
2023-05-17T18:01:40.148Z,101180.77
2023-05-17T18:04:07.125Z,101184.30
2023-05-17T18:06:34.122Z,101186.27
2023-05-17T18:09:01.097Z,101189.80
2023-05-17T18:11:28.012Z,101197.95
2023-05-17T18:13:55.433Z,101205.74
2023-05-17T18:16:22.266Z,101209.95
2023-05-17T18:18:49.208Z,101212.73
2023-05-17T18:21:16.146Z,101217.89
2023-05-17T18:23:43.085Z,101219.64
2023-05-17T18:26:10.015Z,101219.52
2023-05-17T18:28:42.485Z,101223.20
2023-05-17T18:31:10.153Z,101222.45
2023-05-17T18:33:37.151Z,101223.15
2023-05-17T18:36:04.368Z,101231.23
2023-05-17T18:38:31.498Z,101230.86
2023-05-17T18:40:58.413Z,101234.08
2023-05-17T18:43:25.314Z,101234.65
2023-05-17T18:45:52.250Z,101238.05
2023-05-17T18:48:22.250Z,101239.99
2023-05-17T18:50:49.341Z,101238.27
2023-05-17T18:53:16.196Z,101243.63
2023-05-17T18:55:43.107Z,101243.25
2023-05-17T18:58:09.979Z,101239.70
2023-05-17T19:00:36.957Z,101240.48
2023-05-17T19:03:04.631Z,101240.69
2023-05-17T19:05:31.905Z,101239.77
2023-05-17T19:07:58.801Z,101239.00
2023-05-17T19:10:26.631Z,101237.52
2023-05-17T19:12:53.720Z,101234.14
2023-05-17T19:15:21.170Z,101234.23
2023-05-17T19:17:48.196Z,101236.85
2023-05-17T19:20:15.109Z,101235.91
2023-05-17T19:22:42.082Z,101234.94
2023-05-17T19:25:09.090Z,101234.70
2023-05-17T19:27:36.181Z,101235.74
2023-05-17T19:30:03.183Z,101239.64
2023-05-17T19:32:33.264Z,101240.35
2023-05-17T19:35:01.478Z,101242.04
2023-05-17T19:37:28.495Z,101244.11
2023-05-17T19:39:55.681Z,101243.15
2023-05-17T19:42:22.591Z,101236.52
2023-05-17T19:44:49.394Z,101236.66
2023-05-17T19:47:17.200Z,101236.21
2023-05-17T19:49:44.049Z,101236.47
2023-05-17T19:52:11.696Z,101238.88
2023-05-17T19:54:38.632Z,101240.44
2023-05-17T19:57:05.820Z,101241.52
2023-05-17T19:59:32.814Z,101240.55
2023-05-17T20:01:59.876Z,101237.61
2023-05-17T20:04:26.843Z,101239.56
2023-05-17T20:06:53.930Z,101240.02
2023-05-17T20:09:21.011Z,101236.08
2023-05-17T20:11:47.933Z,101234.92
2023-05-17T20:14:16.348Z,101237.30
2023-05-17T20:16:43.305Z,101240.65
2023-05-17T20:19:10.358Z,101244.96
2023-05-17T20:21:37.281Z,101247.48
2023-05-17T20:24:06.832Z,101249.69
2023-05-17T20:26:36.507Z,101246.27
2023-05-17T20:29:04.341Z,101246.27
2023-05-17T20:31:31.230Z,101245.42
2023-05-17T20:33:58.099Z,101249.29
2023-05-17T20:36:25.112Z,101252.71
2023-05-17T20:38:51.972Z,101257.88
2023-05-17T20:41:18.794Z,101259.09
2023-05-17T20:43:46.108Z,101264.73
2023-05-17T20:46:13.328Z,101271.14
2023-05-17T20:48:43.154Z,101271.50
2023-05-17T20:51:10.881Z,101273.67
2023-05-17T20:53:38.307Z,101272.58
2023-05-17T20:56:06.211Z,101273.48
2023-05-17T20:58:33.277Z,101274.02
2023-05-17T21:01:01.332Z,101276.95
2023-05-17T21:03:28.803Z,101276.84
2023-05-17T21:05:55.889Z,101274.05
2023-05-17T21:08:22.869Z,101273.71
2023-05-17T21:10:49.815Z,101275.95
2023-05-17T21:13:16.920Z,101276.92
2023-05-17T21:15:43.954Z,101274.89
2023-05-17T21:18:11.255Z,101271.24
2023-05-17T21:20:38.431Z,101272.75
2023-05-17T21:23:05.526Z,101271.73
2023-05-17T21:25:32.690Z,101271.96
2023-05-17T21:27:59.907Z,101271.40
2023-05-17T21:30:26.815Z,101271.80
2023-05-17T21:32:53.718Z,101271.15
2023-05-17T21:35:20.811Z,101270.64
2023-05-17T21:37:47.728Z,101267.93
2023-05-17T21:40:14.952Z,101263.89
2023-05-17T21:42:41.889Z,101262.67
2023-05-17T21:45:09.120Z,101262.64
2023-05-17T21:47:36.262Z,101262.50
2023-05-17T21:50:03.410Z,101263.19
2023-05-17T21:52:30.355Z,101256.23
2023-05-17T21:54:57.185Z,101256.48
2023-05-17T21:57:24.032Z,101251.71
2023-05-17T21:59:51.058Z,101246.23
2023-05-17T22:02:18.027Z,101240.34
2023-05-17T22:04:44.980Z,101235.84
2023-05-17T22:07:13.410Z,101233.02
2023-05-17T22:09:40.318Z,101227.70
2023-05-17T22:12:08.642Z,101225.90
2023-05-17T22:14:36.674Z,101224.61
2023-05-17T22:17:08.645Z,101220.94
2023-05-17T22:19:40.647Z,101215.80
2023-05-17T22:22:07.959Z,101211.06
2023-05-17T22:24:34.895Z,101212.58
2023-05-17T22:27:02.550Z,101206.77
2023-05-17T22:29:29.381Z,101209.11
2023-05-17T22:31:56.416Z,101211.00
2023-05-17T22:34:23.373Z,101210.02
2023-05-17T22:36:50.296Z,101202.14
2023-05-17T22:39:17.125Z,101200.97
2023-05-17T22:41:44.106Z,101198.44
2023-05-17T22:44:11.328Z,101199.40
2023-05-17T22:46:38.740Z,101196.90
2023-05-17T22:49:05.692Z,101192.08
2023-05-17T22:51:35.097Z,101191.80
2023-05-17T22:54:02.698Z,101188.23
2023-05-17T22:56:30.188Z,101187.15
2023-05-17T22:58:58.328Z,101182.48
2023-05-17T23:01:25.221Z,101183.96
2023-05-17T23:03:52.308Z,101182.94
2023-05-17T23:06:22.295Z,101184.14
2023-05-17T23:08:49.914Z,101181.58
2023-05-17T23:11:18.159Z,101184.48
2023-05-17T23:13:45.211Z,101186.42
2023-05-17T23:16:14.191Z,101187.13
2023-05-17T23:18:41.403Z,101188.29
2023-05-17T23:21:09.590Z,101187.06
2023-05-17T23:23:38.166Z,101189.64
2023-05-17T23:26:06.153Z,101189.80
2023-05-17T23:28:33.013Z,101190.63
2023-05-17T23:31:01.519Z,101191.35
2023-05-17T23:33:31.595Z,101191.10
2023-05-17T23:35:59.037Z,101190.02
2023-05-17T23:38:26.399Z,101193.51
2023-05-17T23:40:53.411Z,101193.39
2023-05-17T23:43:20.341Z,101193.02
2023-05-17T23:45:47.278Z,101192.18
2023-05-17T23:48:16.382Z,101191.27
2023-05-17T23:50:43.259Z,101194.65
2023-05-17T23:53:10.221Z,101191.75
2023-05-17T23:55:37.967Z,101190.20
2023-05-17T23:58:04.824Z,101190.70
